Airport View

Enter AWOS ICAO identifier for current METAR.

ex. KFNL

KAND 212256Z AUTO 26003KT 10SM CLR 28/14 A3020 RMK AO2 SLP219 T02830144

21 Sep 2019 23:27

Frequency: 120.675

Phone: 864-226-9522

Other Area AWOS: KCEU - KLQK - K18A - KGYH

TAF KAND 211720Z 2118/2218 22004KT P6SM SKC FM220200 00000KT P6SM SKC